createdAt,value
2023-04-16T00:01:46.767Z,95766.27
2023-04-16T00:04:13.438Z,95767.39
2023-04-16T00:06:40.080Z,95767.13
2023-04-16T00:09:07.505Z,95766.97
2023-04-16T00:11:35.085Z,95770.63
2023-04-16T00:14:01.719Z,95772.63
2023-04-16T00:16:28.486Z,95775.98
2023-04-16T00:18:55.007Z,95777.98
2023-04-16T00:21:21.572Z,95779.20
2023-04-16T00:23:48.205Z,95778.64
2023-04-16T00:26:15.473Z,95780.48
2023-04-16T00:28:42.140Z,95779.30
2023-04-16T00:31:08.709Z,95779.27
2023-04-16T00:33:35.467Z,95781.48
2023-04-16T00:36:02.291Z,95780.51
2023-04-16T00:38:29.808Z,95785.23
2023-04-16T00:40:59.387Z,95786.13
2023-04-16T00:43:26.651Z,95787.14
2023-04-16T00:45:56.644Z,95785.46
2023-04-16T00:48:24.222Z,95790.45
2023-04-16T00:50:50.914Z,95788.84
2023-04-16T00:53:17.551Z,95790.77
2023-04-16T00:55:45.574Z,95791.25
2023-04-16T00:58:12.419Z,95789.98
2023-04-16T01:00:39.049Z,95792.24
2023-04-16T01:03:05.956Z,95795.00
2023-04-16T01:05:32.845Z,95796.44
2023-04-16T01:08:00.611Z,95800.10
2023-04-16T01:10:27.301Z,95805.70
2023-04-16T01:12:53.921Z,95811.57
2023-04-16T01:15:20.482Z,95809.39
2023-04-16T01:17:47.229Z,95815.42
2023-04-16T01:20:14.259Z,95816.69
2023-04-16T01:22:40.873Z,95819.16
2023-04-16T01:25:08.329Z,95822.61
2023-04-16T01:27:36.920Z,95822.60
2023-04-16T01:30:04.489Z,95828.30
2023-04-16T01:32:39.180Z,95827.55
2023-04-16T01:35:06.278Z,95828.71
2023-04-16T01:37:33.143Z,95830.29
2023-04-16T01:39:59.721Z,95830.41
2023-04-16T01:42:26.228Z,95828.17
2023-04-16T01:44:52.855Z,95828.36
2023-04-16T01:47:19.422Z,95829.20
2023-04-16T01:49:47.549Z,95827.39
2023-04-16T01:52:14.024Z,95826.95
2023-04-16T01:54:40.655Z,95828.91
2023-04-16T01:57:07.274Z,95826.02
2023-04-16T01:59:33.996Z,95826.20
2023-04-16T02:02:10.319Z,95830.16
2023-04-16T02:04:38.783Z,95831.56
2023-04-16T02:07:06.298Z,95831.59
2023-04-16T02:09:37.716Z,95830.36
2023-04-16T02:12:06.888Z,95831.73
2023-04-16T02:14:33.616Z,95830.92
2023-04-16T02:17:00.548Z,95832.39
2023-04-16T02:19:38.973Z,95826.14
2023-04-16T02:22:06.155Z,95829.14
2023-04-16T02:24:32.847Z,95827.14
2023-04-16T02:27:01.084Z,95830.23
2023-04-16T02:29:28.013Z,95831.94
2023-04-16T02:32:00.284Z,95829.70
2023-04-16T02:34:27.359Z,95830.24
2023-04-16T02:36:54.427Z,95834.05
2023-04-16T02:39:21.560Z,95838.85
2023-04-16T02:41:48.173Z,95840.91
2023-04-16T02:44:15.039Z,95838.90
2023-04-16T02:46:41.537Z,95844.64
2023-04-16T02:49:08.320Z,95844.41
2023-04-16T02:51:34.981Z,95848.02
2023-04-16T02:54:02.496Z,95850.36
2023-04-16T02:56:29.228Z,95849.48
2023-04-16T02:58:55.895Z,95851.42
2023-04-16T03:01:22.524Z,95848.52
2023-04-16T03:03:49.205Z,95854.14
2023-04-16T03:06:16.149Z,95852.69
2023-04-16T03:08:42.645Z,95855.25
2023-04-16T03:11:09.225Z,95855.25
2023-04-16T03:13:36.013Z,95860.68
2023-04-16T03:16:02.539Z,95862.47
2023-04-16T03:18:29.356Z,95869.47
2023-04-16T03:20:56.022Z,95873.28
2023-04-16T03:23:22.552Z,95879.06
2023-04-16T03:25:50.097Z,95876.73
2023-04-16T03:28:18.289Z,95877.27
2023-04-16T03:30:52.146Z,95876.37
2023-04-16T03:33:20.385Z,95876.89
2023-04-16T03:35:46.927Z,95880.45
2023-04-16T03:38:13.797Z,95884.50
2023-04-16T03:40:40.894Z,95883.72
2023-04-16T03:43:07.415Z,95890.22
2023-04-16T03:45:34.004Z,95892.20
2023-04-16T03:48:00.640Z,95895.69
2023-04-16T03:50:27.289Z,95900.16
2023-04-16T03:52:53.910Z,95901.07
2023-04-16T03:55:20.681Z,95903.56
2023-04-16T03:57:47.289Z,95905.95
2023-04-16T04:00:16.277Z,95906.59
2023-04-16T04:03:02.466Z,95908.46
2023-04-16T04:05:29.230Z,95908.27
2023-04-16T04:07:55.934Z,95913.91
2023-04-16T04:10:22.955Z,95915.02
2023-04-16T04:12:50.202Z,95918.74
2023-04-16T04:15:17.120Z,95923.44
2023-04-16T04:17:43.700Z,95926.74
2023-04-16T04:20:11.122Z,95928.23
2023-04-16T04:22:37.701Z,95932.95
2023-04-16T04:25:04.829Z,95933.48
2023-04-16T04:27:32.100Z,95937.73
2023-04-16T04:29:58.681Z,95940.91
2023-04-16T04:32:25.399Z,95941.95
2023-04-16T04:34:52.117Z,95940.35
2023-04-16T04:37:18.639Z,95943.06
2023-04-16T04:39:45.536Z,95946.89
2023-04-16T04:42:12.209Z,95950.98
2023-04-16T04:44:39.162Z,95962.05
2023-04-16T04:47:07.629Z,95970.08
2023-04-16T04:49:34.885Z,95972.96
2023-04-16T04:52:03.247Z,95973.30
2023-04-16T04:54:31.941Z,95974.33
2023-04-16T04:56:58.682Z,95970.20
2023-04-16T04:59:25.456Z,95968.07
2023-04-16T05:01:52.642Z,95966.45
2023-04-16T05:04:21.755Z,95967.25
2023-04-16T05:06:48.236Z,95970.00
2023-04-16T05:09:14.959Z,95972.30
2023-04-16T05:11:41.684Z,95976.33
2023-04-16T05:14:08.257Z,95977.69
2023-04-16T05:16:37.775Z,95984.70
2023-04-16T05:19:04.620Z,95987.86
2023-04-16T05:21:31.161Z,95989.48
2023-04-16T05:23:58.158Z,95993.73
2023-04-16T05:26:24.688Z,95993.30
2023-04-16T05:28:51.222Z,95996.26
2023-04-16T05:31:17.845Z,95995.30
2023-04-16T05:33:44.582Z,95998.83
2023-04-16T05:36:11.135Z,96003.81
2023-04-16T05:38:37.670Z,96009.82
2023-04-16T05:41:04.340Z,96010.89
2023-04-16T05:43:31.192Z,96013.27
2023-04-16T05:45:57.768Z,96015.48
2023-04-16T05:48:24.544Z,96021.85
2023-04-16T05:50:51.153Z,96028.62
2023-04-16T05:53:18.373Z,96029.95
2023-04-16T05:55:46.077Z,96039.64
2023-04-16T05:58:12.566Z,96043.04
2023-04-16T06:00:39.779Z,96042.19
2023-04-16T06:03:06.467Z,96041.71
2023-04-16T06:05:33.325Z,96046.50
2023-04-16T06:07:59.939Z,96045.41
2023-04-16T06:10:26.707Z,96041.91
2023-04-16T06:12:53.309Z,96040.16
2023-04-16T06:15:19.906Z,96039.79
2023-04-16T06:17:46.552Z,96040.66
2023-04-16T06:20:13.192Z,96041.80
2023-04-16T06:22:39.895Z,96045.02
2023-04-16T06:25:06.760Z,96043.45
2023-04-16T06:27:33.454Z,96043.91
2023-04-16T06:30:00.233Z,96050.05
2023-04-16T06:32:26.939Z,96054.41
2023-04-16T06:34:53.654Z,96055.52
2023-04-16T06:37:21.480Z,96052.83
2023-04-16T06:39:47.972Z,96051.04
2023-04-16T06:42:14.877Z,96052.94
2023-04-16T06:44:41.419Z,96048.66
2023-04-16T06:47:08.038Z,96048.85
2023-04-16T06:49:34.986Z,96045.83
2023-04-16T06:52:03.802Z,96044.20
2023-04-16T06:54:31.863Z,96051.52
2023-04-16T06:56:58.381Z,96051.98
2023-04-16T06:59:24.910Z,96057.14
2023-04-16T07:01:52.257Z,96059.92
2023-04-16T07:04:18.976Z,96067.04
2023-04-16T07:06:46.135Z,96071.45
2023-04-16T07:09:12.676Z,96077.98
2023-04-16T07:11:39.751Z,96080.75
2023-04-16T07:14:06.545Z,96077.38
2023-04-16T07:16:33.319Z,96078.50
2023-04-16T07:18:59.877Z,96078.61
2023-04-16T07:21:27.117Z,96084.20
2023-04-16T07:23:53.930Z,96087.84
2023-04-16T07:26:20.602Z,96092.17
2023-04-16T07:28:47.164Z,96098.56
2023-04-16T07:31:13.941Z,96095.99
2023-04-16T07:33:40.638Z,96099.16
2023-04-16T07:36:07.411Z,96093.66
2023-04-16T07:38:34.136Z,96097.33
2023-04-16T07:41:01.066Z,96100.45
2023-04-16T07:43:27.627Z,96099.54
2023-04-16T07:45:54.459Z,96104.96
2023-04-16T07:48:21.504Z,96106.70
2023-04-16T07:50:49.440Z,96105.61
2023-04-16T07:53:16.530Z,96105.45
2023-04-16T07:55:43.187Z,96108.42
2023-04-16T07:58:10.210Z,96108.35
2023-04-16T08:00:36.918Z,96110.60
2023-04-16T08:03:03.713Z,96114.80
2023-04-16T08:05:30.448Z,96115.53
2023-04-16T08:07:56.996Z,96114.27
2023-04-16T08:10:23.521Z,96112.14
2023-04-16T08:12:50.221Z,96114.20
2023-04-16T08:15:17.055Z,96113.77
2023-04-16T08:17:44.267Z,96115.08
2023-04-16T08:20:14.973Z,96115.53
2023-04-16T08:22:45.208Z,96114.63
2023-04-16T08:25:11.810Z,96114.88
2023-04-16T08:27:38.329Z,96116.75
2023-04-16T08:30:05.710Z,96120.88
2023-04-16T08:32:32.417Z,96121.27
2023-04-16T08:34:59.194Z,96122.38
2023-04-16T08:37:26.079Z,96123.40
2023-04-16T08:39:52.847Z,96125.84
2023-04-16T08:42:50.465Z,96130.23
2023-04-16T08:45:17.495Z,96130.27
2023-04-16T08:47:50.223Z,96133.15
2023-04-16T08:50:22.040Z,96129.44
2023-04-16T08:52:56.094Z,96136.36
2023-04-16T08:55:31.727Z,96142.94
2023-04-16T08:57:59.711Z,96140.04
2023-04-16T09:00:27.924Z,96139.73
2023-04-16T09:02:55.252Z,96144.27
2023-04-16T09:05:25.119Z,96146.35
2023-04-16T09:07:54.020Z,96148.52
2023-04-16T09:10:21.525Z,96146.70
2023-04-16T09:12:48.161Z,96147.02
2023-04-16T09:15:14.913Z,96147.85
2023-04-16T09:17:41.575Z,96143.86
2023-04-16T09:20:10.410Z,96144.11
2023-04-16T09:22:39.454Z,96147.34
2023-04-16T09:25:07.340Z,96144.26
2023-04-16T09:27:34.049Z,96147.75
2023-04-16T09:30:00.771Z,96151.81
2023-04-16T09:32:28.429Z,96152.90
2023-04-16T09:35:00.318Z,96150.55
2023-04-16T09:37:31.694Z,96153.55
2023-04-16T09:40:00.389Z,96154.02
2023-04-16T09:42:32.627Z,96156.41
2023-04-16T09:45:01.372Z,96156.63
2023-04-16T09:47:49.452Z,96154.42
2023-04-16T09:50:19.001Z,96153.02
2023-04-16T09:52:52.018Z,96155.02
2023-04-16T09:55:23.295Z,96159.77
2023-04-16T09:57:58.029Z,96162.03
2023-04-16T10:00:24.905Z,96161.82
2023-04-16T10:03:04.129Z,96159.45
2023-04-16T10:05:31.105Z,96162.33
2023-04-16T10:08:01.509Z,96169.90
2023-04-16T10:10:29.300Z,96167.02
2023-04-16T10:12:55.998Z,96168.86
2023-04-16T10:15:22.811Z,96172.54
2023-04-16T10:17:50.508Z,96173.83
2023-04-16T10:20:17.764Z,96172.33
2023-04-16T10:22:44.556Z,96174.14
2023-04-16T10:25:11.477Z,96176.35
2023-04-16T10:27:40.105Z,96171.80
2023-04-16T10:30:08.267Z,96169.94
2023-04-16T10:32:36.281Z,96168.08
2023-04-16T10:35:06.653Z,96168.24
2023-04-16T10:37:34.205Z,96172.95
2023-04-16T10:40:01.247Z,96178.79
2023-04-16T10:42:28.037Z,96182.02
2023-04-16T10:44:59.155Z,96183.20
2023-04-16T10:47:26.094Z,96184.63
2023-04-16T10:49:52.768Z,96186.33
2023-04-16T10:52:21.960Z,96184.51
2023-04-16T10:54:49.901Z,96185.94
2023-04-16T10:57:18.994Z,96185.33
2023-04-16T10:59:48.036Z,96184.80
2023-04-16T11:02:18.809Z,96190.69
2023-04-16T11:04:48.066Z,96188.73
2023-04-16T11:07:18.128Z,96188.35
2023-04-16T11:10:03.601Z,96190.58
2023-04-16T11:12:48.627Z,96192.01
2023-04-16T11:15:18.720Z,96189.61
2023-04-16T11:17:47.778Z,96191.55
2023-04-16T11:20:20.736Z,96192.76
2023-04-16T11:22:54.055Z,96193.14
2023-04-16T11:25:23.539Z,96194.29
2023-04-16T11:27:53.228Z,96192.67
2023-04-16T11:30:33.152Z,96199.03
2023-04-16T11:33:04.200Z,96199.52
2023-04-16T11:35:30.937Z,96201.38
2023-04-16T11:37:58.133Z,96201.33
2023-04-16T11:40:28.782Z,96198.70
2023-04-16T11:43:02.281Z,96198.39
2023-04-16T11:45:29.230Z,96202.27
2023-04-16T11:47:57.169Z,96199.38
2023-04-16T11:50:28.129Z,96199.98
2023-04-16T11:53:02.442Z,96202.53
2023-04-16T11:55:29.183Z,96202.95
2023-04-16T11:57:56.042Z,96198.91
2023-04-16T12:00:24.621Z,96199.47
2023-04-16T12:02:54.600Z,96199.95
2023-04-16T12:05:40.827Z,96199.31
2023-04-16T12:08:09.960Z,96201.16
2023-04-16T12:10:54.289Z,96198.05
2023-04-16T12:13:21.042Z,96197.80
2023-04-16T12:15:52.773Z,96195.79
2023-04-16T12:18:26.220Z,96194.19
2023-04-16T12:20:53.104Z,96197.96
2023-04-16T12:23:25.711Z,96198.50
2023-04-16T12:25:52.558Z,96195.25
2023-04-16T12:28:34.336Z,96193.35
2023-04-16T12:31:02.150Z,96194.39
2023-04-16T12:33:28.876Z,96190.71
2023-04-16T12:35:55.748Z,96192.27
2023-04-16T12:38:24.451Z,96190.98
2023-04-16T12:40:55.800Z,96186.77
2023-04-16T12:43:23.087Z,96185.12
2023-04-16T12:45:54.036Z,96182.29
2023-04-16T12:48:21.120Z,96175.59
2023-04-16T12:50:47.853Z,96180.37
2023-04-16T12:53:14.415Z,96176.73
2023-04-16T12:55:41.117Z,96176.48
2023-04-16T12:58:09.790Z,96174.05
2023-04-16T13:00:37.792Z,96171.41
2023-04-16T13:03:04.393Z,96173.98
2023-04-16T13:05:30.993Z,96176.84
2023-04-16T13:07:57.527Z,96178.32
2023-04-16T13:10:24.361Z,96174.75
2023-04-16T13:12:50.953Z,96173.02
2023-04-16T13:15:17.631Z,96173.39
2023-04-16T13:17:44.416Z,96172.58
2023-04-16T13:20:11.325Z,96172.09
2023-04-16T13:22:38.556Z,96174.65
2023-04-16T13:25:06.010Z,96169.96
2023-04-16T13:27:32.644Z,96169.21
2023-04-16T13:29:59.196Z,96164.86
2023-04-16T13:32:26.058Z,96165.80
2023-04-16T13:34:52.618Z,96168.45
2023-04-16T13:37:19.397Z,96170.64
2023-04-16T13:39:46.790Z,96170.55
2023-04-16T13:42:13.536Z,96168.23
2023-04-16T13:44:40.473Z,96174.45
2023-04-16T13:47:07.827Z,96173.05
2023-04-16T13:49:35.914Z,96173.01
2023-04-16T13:52:03.874Z,96171.43
2023-04-16T13:54:30.653Z,96170.94
2023-04-16T13:56:57.220Z,96169.95
2023-04-16T13:59:23.787Z,96170.33
2023-04-16T14:01:50.680Z,96171.69
2023-04-16T14:04:18.208Z,96171.90
2023-04-16T14:06:44.914Z,96172.26
2023-04-16T14:09:11.775Z,96171.02
2023-04-16T14:11:38.498Z,96166.48
2023-04-16T14:14:06.752Z,96166.17
2023-04-16T14:16:34.013Z,96163.80
2023-04-16T14:19:00.911Z,96162.84
2023-04-16T14:21:28.072Z,96164.20
2023-04-16T14:23:54.847Z,96166.20
2023-04-16T14:26:21.957Z,96164.32
2023-04-16T14:28:51.021Z,96163.81
2023-04-16T14:31:19.417Z,96161.21
2023-04-16T14:33:46.596Z,96161.41
2023-04-16T14:36:13.664Z,96159.65
2023-04-16T14:38:45.188Z,96161.55
2023-04-16T14:41:12.688Z,96162.04
2023-04-16T14:43:41.079Z,96165.55
2023-04-16T14:46:07.852Z,96165.88
2023-04-16T14:48:35.764Z,96165.14
2023-04-16T14:51:02.566Z,96170.22
2023-04-16T14:53:29.118Z,96170.88
2023-04-16T14:55:58.380Z,96173.95
2023-04-16T14:58:25.639Z,96173.17
2023-04-16T15:00:52.311Z,96174.64
2023-04-16T15:03:19.379Z,96175.76
2023-04-16T15:05:51.612Z,96177.42
2023-04-16T15:08:18.239Z,96179.63
2023-04-16T15:10:45.150Z,96177.41
2023-04-16T15:13:11.713Z,96178.58
2023-04-16T15:15:38.278Z,96174.54
2023-04-16T15:18:06.056Z,96176.52
2023-04-16T15:20:32.862Z,96179.61
2023-04-16T15:22:59.578Z,96174.93
2023-04-16T15:25:26.238Z,96177.89
2023-04-16T15:27:53.094Z,96178.68
2023-04-16T15:30:20.051Z,96177.65
2023-04-16T15:32:47.060Z,96179.07
2023-04-16T15:35:13.846Z,96183.10
2023-04-16T15:37:41.275Z,96186.92
2023-04-16T15:40:08.619Z,96181.80
2023-04-16T15:42:35.679Z,96184.50
2023-04-16T15:45:03.352Z,96185.79
2023-04-16T15:47:30.640Z,96187.43
2023-04-16T15:49:57.725Z,96186.95
2023-04-16T15:52:24.936Z,96185.73
2023-04-16T15:54:52.240Z,96184.64
2023-04-16T15:57:19.021Z,96185.24
2023-04-16T15:59:55.842Z,96186.14
2023-04-16T16:02:33.722Z,96185.73
2023-04-16T16:05:01.341Z,96187.15
2023-04-16T16:07:28.811Z,96189.10
2023-04-16T16:09:56.403Z,96187.81
2023-04-16T16:12:24.540Z,96191.69
2023-04-16T16:14:51.949Z,96191.63
2023-04-16T16:17:20.421Z,96195.23
2023-04-16T16:21:46.664Z,96201.30
2023-04-16T16:24:15.978Z,96202.79
2023-04-16T16:26:44.447Z,96202.77
2023-04-16T16:29:12.777Z,96205.46
2023-04-16T16:31:41.007Z,96209.84
2023-04-16T16:34:14.736Z,96212.69
2023-04-16T16:36:49.434Z,96215.17
2023-04-16T16:39:17.581Z,96215.80
2023-04-16T16:41:45.723Z,96219.20
2023-04-16T16:44:13.627Z,96220.33
2023-04-16T16:46:41.742Z,96222.10
2023-04-16T16:49:10.180Z,96224.31
2023-04-16T16:51:39.201Z,96230.23
2023-04-16T16:54:07.947Z,96225.42
2023-04-16T16:56:35.890Z,96228.34
2023-04-16T16:59:04.075Z,96226.55
2023-04-16T17:01:32.521Z,96230.30
2023-04-16T17:04:00.651Z,96232.65
2023-04-16T17:06:29.169Z,96235.35
2023-04-16T17:08:57.131Z,96238.31
2023-04-16T17:11:27.478Z,96239.52
2023-04-16T17:13:55.366Z,96240.95
2023-04-16T17:16:24.182Z,96247.20
2023-04-16T17:18:52.514Z,96246.64
2023-04-16T17:21:21.043Z,96249.77
2023-04-16T17:23:48.994Z,96255.04
2023-04-16T17:26:18.158Z,96254.14
2023-04-16T17:28:51.179Z,96254.63
2023-04-16T17:31:20.369Z,96256.45
2023-04-16T17:33:51.254Z,96258.34
2023-04-16T17:36:21.546Z,96261.66
2023-04-16T17:38:51.164Z,96265.02
2023-04-16T17:41:28.342Z,96269.27
2023-04-16T17:43:56.770Z,96266.30
2023-04-16T17:46:25.856Z,96265.75
2023-04-16T17:48:55.034Z,96268.73
2023-04-16T17:51:23.680Z,96271.79
2023-04-16T17:53:52.296Z,96271.55
2023-04-16T17:56:20.750Z,96276.42
2023-04-16T17:58:49.404Z,96280.21
2023-04-16T18:01:17.765Z,96282.02
2023-04-16T18:03:46.601Z,96282.86
2023-04-16T18:06:15.294Z,96283.10
2023-04-16T18:08:43.918Z,96283.48
2023-04-16T18:11:12.409Z,96287.61
2023-04-16T18:13:41.570Z,96287.73
2023-04-16T18:16:17.451Z,96290.91
2023-04-16T18:18:46.808Z,96292.84
2023-04-16T18:21:16.371Z,96292.45
2023-04-16T18:23:45.276Z,96297.13
2023-04-16T18:26:17.777Z,96299.55
2023-04-16T18:28:47.097Z,96301.12
2023-04-16T18:31:16.013Z,96302.71
2023-04-16T18:33:56.544Z,96304.26
2023-04-16T18:36:27.439Z,96304.84
2023-04-16T18:39:02.190Z,96305.48
2023-04-16T18:41:32.130Z,96306.59
2023-04-16T18:44:01.183Z,96312.04
2023-04-16T18:46:30.034Z,96313.22
2023-04-16T18:49:02.690Z,96311.90
2023-04-16T18:51:32.009Z,96313.84
2023-04-16T18:54:00.690Z,96318.72
2023-04-16T18:56:31.671Z,96321.13
2023-04-16T18:59:00.243Z,96320.79
2023-04-16T19:01:28.915Z,96321.65
2023-04-16T19:03:57.715Z,96318.73
2023-04-16T19:06:28.278Z,96319.73
2023-04-16T19:08:58.066Z,96319.66
2023-04-16T19:11:27.643Z,96317.64
2023-04-16T19:13:56.484Z,96321.11
2023-04-16T19:16:25.368Z,96320.84
2023-04-16T19:18:54.628Z,96320.45
2023-04-16T19:21:23.374Z,96324.34
2023-04-16T19:23:52.495Z,96322.52
2023-04-16T19:26:21.592Z,96322.21
2023-04-16T19:28:50.238Z,96327.11
2023-04-16T19:31:18.833Z,96320.39
2023-04-16T19:33:47.525Z,96320.04
2023-04-16T19:36:16.217Z,96319.67
2023-04-16T19:38:44.787Z,96319.30
2023-04-16T19:41:13.701Z,96324.55
2023-04-16T19:43:43.199Z,96323.02
2023-04-16T19:46:11.938Z,96324.08
2023-04-16T19:48:40.380Z,96325.48
2023-04-16T19:51:09.128Z,96325.17
2023-04-16T19:53:37.881Z,96324.46
2023-04-16T19:56:06.572Z,96321.29
2023-04-16T19:58:35.331Z,96322.90
2023-04-16T20:01:11.190Z,96321.02
2023-04-16T20:03:44.081Z,96322.31
2023-04-16T20:06:12.744Z,96319.55
2023-04-16T20:08:41.412Z,96316.55
2023-04-16T20:11:09.836Z,96316.10
2023-04-16T20:13:38.672Z,96312.98
2023-04-16T20:16:09.531Z,96311.68
2023-04-16T20:18:41.567Z,96310.90
2023-04-16T20:21:10.120Z,96309.74
2023-04-16T20:23:38.776Z,96309.69
2023-04-16T20:26:07.099Z,96310.14
2023-04-16T20:28:34.975Z,96311.39
2023-04-16T20:31:03.144Z,96308.63
2023-04-16T20:33:31.058Z,96306.41
2023-04-16T20:35:59.081Z,96309.13
2023-04-16T20:38:29.658Z,96306.77
2023-04-16T20:41:10.413Z,96308.42
2023-04-16T20:43:40.709Z,96303.67
2023-04-16T20:46:09.585Z,96305.13
2023-04-16T20:48:39.093Z,96304.70
2023-04-16T20:51:10.700Z,96303.56
2023-04-16T20:53:38.708Z,96301.77
2023-04-16T20:56:07.252Z,96303.46
2023-04-16T20:58:35.464Z,96307.60
2023-04-16T21:01:04.792Z,96304.41
2023-04-16T21:03:32.980Z,96300.20
2023-04-16T21:06:02.467Z,96302.30
2023-04-16T21:08:30.460Z,96300.50
2023-04-16T21:10:58.409Z,96302.48
2023-04-16T21:13:26.457Z,96301.81
2023-04-16T21:15:54.960Z,96301.54
2023-04-16T21:18:22.996Z,96301.35
2023-04-16T21:20:51.115Z,96301.86
2023-04-16T21:23:19.347Z,96298.23
2023-04-16T21:25:56.340Z,96303.82
2023-04-16T21:28:24.375Z,96300.17
2023-04-16T21:30:53.809Z,96300.90
2023-04-16T21:33:22.069Z,96305.71
2023-04-16T21:35:53.786Z,96302.65
2023-04-16T21:38:22.113Z,96297.55
2023-04-16T21:40:53.709Z,96298.17
2023-04-16T21:43:24.803Z,96294.86
2023-04-16T21:45:56.098Z,96292.92
2023-04-16T21:48:24.020Z,96298.31
2023-04-16T21:50:59.134Z,96300.66
2023-04-16T21:53:32.041Z,96303.82
2023-04-16T21:56:00.313Z,96301.08
2023-04-16T21:58:28.221Z,96301.05
2023-04-16T22:00:56.332Z,96300.38
2023-04-16T22:03:27.592Z,96303.95
2023-04-16T22:06:01.479Z,96301.03
2023-04-16T22:08:30.448Z,96297.95
2023-04-16T22:11:00.361Z,96294.15
2023-04-16T22:13:32.288Z,96295.77
2023-04-16T22:16:01.731Z,96295.80
2023-04-16T22:18:33.742Z,96296.15
2023-04-16T22:21:02.105Z,96298.94
2023-04-16T22:23:30.169Z,96297.01
2023-04-16T22:25:58.041Z,96295.25
2023-04-16T22:28:26.064Z,96296.18
2023-04-16T22:30:54.025Z,96296.42
2023-04-16T22:33:21.926Z,96298.50
2023-04-16T22:35:49.901Z,96298.21
2023-04-16T22:38:17.891Z,96296.72
2023-04-16T22:40:48.278Z,96303.85
2023-04-16T22:43:17.725Z,96303.37
2023-04-16T22:45:46.448Z,96307.02
2023-04-16T22:48:14.481Z,96310.48
2023-04-16T22:50:48.613Z,96308.04
2023-04-16T22:53:16.588Z,96305.80
2023-04-16T22:55:44.581Z,96303.52
2023-04-16T22:58:12.473Z,96302.27
2023-04-16T23:00:40.753Z,96300.09
2023-04-16T23:03:08.976Z,96302.60
2023-04-16T23:05:36.993Z,96301.41
2023-04-16T23:08:05.191Z,96300.04
2023-04-16T23:10:33.238Z,96302.91
2023-04-16T23:13:01.604Z,96301.73
2023-04-16T23:15:29.695Z,96296.59
2023-04-16T23:17:58.174Z,96301.95
2023-04-16T23:20:26.200Z,96303.42
2023-04-16T23:22:54.237Z,96298.17
2023-04-16T23:25:25.571Z,96296.62
2023-04-16T23:27:53.440Z,96295.82
2023-04-16T23:30:21.467Z,96295.98
2023-04-16T23:32:49.448Z,96294.23
2023-04-16T23:35:22.812Z,96291.40
2023-04-16T23:37:50.916Z,96291.53
2023-04-16T23:40:18.824Z,96289.61
2023-04-16T23:42:46.726Z,96288.30
2023-04-16T23:45:14.617Z,96286.71
2023-04-16T23:47:42.554Z,96283.59
2023-04-16T23:50:11.049Z,96280.85
2023-04-16T23:52:39.100Z,96280.63
2023-04-16T23:55:07.396Z,96283.63
2023-04-16T23:57:35.394Z,96283.55
